Time;durP1;ratioP1;P1;durP2;ratioP2;P2;SDS_P1;SDS_P2;PMS_P1;PMS_P2;Temp;Humidity;BMP_temperature;BMP_pressure;BME280_temperature;BME280_humidity;BME280_pressure;Samples;Min_cycle;Max_cycle;Signal;HPM_P1;HPM_P2
2022/09/08 00:01:18;;;;;;;10.80;8.35;;;16.90;99.90;;;;;;4953490;28;20062;-88
2022/09/08 00:03:49;;;;;;;10.60;8.18;;;16.90;99.90;;;;;;4938244;28;20050;-87
2022/09/08 00:06:17;;;;;;;13.63;8.38;;;16.90;99.90;;;;;;4952144;28;20035;-87
2022/09/08 00:08:45;;;;;;;15.15;9.02;;;16.90;99.90;;;;;;4963758;28;20047;-87
2022/09/08 00:11:15;;;;;;;12.63;9.38;;;16.90;99.90;;;;;;4933982;29;20058;-87
2022/09/08 00:13:42;;;;;;;13.43;10.60;;;16.80;99.90;;;;;;4969077;28;20874;-87
2022/09/08 00:16:11;;;;;;;16.13;10.77;;;16.90;99.90;;;;;;4937371;28;20034;-87
2022/09/08 00:18:40;;;;;;;14.02;10.98;;;16.90;99.90;;;;;;4952931;28;20078;-87
2022/09/08 00:21:08;;;;;;;15.10;10.80;;;16.80;99.90;;;;;;4970423;28;20402;-87
2022/09/08 00:23:34;;;;;;;17.00;12.45;;;16.80;99.90;;;;;;4953829;28;20178;-86
2022/09/08 00:26:02;;;;;;;18.45;14.15;;;16.80;99.90;;;;;;4967118;28;20122;-87
2022/09/08 00:28:28;;;;;;;19.63;12.98;;;16.80;99.90;;;;;;4950243;28;20043;-87
2022/09/08 00:30:57;;;;;;;16.17;11.68;;;16.80;99.90;;;;;;4937578;28;20049;-87
2022/09/08 00:33:23;;;;;;;18.33;12.80;;;16.70;99.90;;;;;;4933272;28;20202;-87
2022/09/08 00:35:51;;;;;;;19.52;15.07;;;16.70;99.90;;;;;;4937307;28;20074;-87
2022/09/08 00:38:19;;;;;;;18.80;15.18;;;16.70;99.90;;;;;;4968796;28;20035;-88
2022/09/08 00:40:46;;;;;;;18.77;15.65;;;16.70;99.90;;;;;;4968739;28;20061;-87
2022/09/08 00:43:35;;;;;;;20.42;14.68;;;16.90;99.90;;;;;;4951681;28;20042;-87
2022/09/08 00:46:47;;;;;;;15.40;13.23;;;16.70;99.90;;;;;;4934690;28;20051;-87
2022/09/08 00:49:21;;;;;;;17.15;14.55;;;16.60;99.90;;;;;;4932333;29;20059;-87
2022/09/08 00:51:51;;;;;;;19.63;15.88;;;16.60;99.90;;;;;;4929073;28;20138;-87
2022/09/08 00:54:18;;;;;;;18.60;15.10;;;16.70;99.90;;;;;;4935072;28;20184;-87
2022/09/08 00:56:46;;;;;;;18.02;14.23;;;16.60;99.90;;;;;;4951456;28;20078;-87
2022/09/08 00:59:20;;;;;;;19.65;16.95;;;16.60;99.90;;;;;;4953430;28;20047;-87
2022/09/08 01:01:46;;;;;;;18.67;15.48;;;16.70;99.90;;;;;;4920850;28;20051;-87
2022/09/08 01:04:12;;;;;;;21.58;16.13;;;16.60;99.90;;;;;;4953372;28;20051;-87
2022/09/08 01:12:55;;;;;;;19.00;17.00;;;16.50;99.90;;;;;;4936241;28;20336;-87
2022/09/08 01:15:24;;;;;;;24.13;20.52;;;16.50;99.90;;;;;;4937614;29;20407;-87
2022/09/08 01:17:54;;;;;;;25.58;21.42;;;16.50;99.90;;;;;;4952655;28;20617;-86
2022/09/08 01:20:27;;;;;;;28.52;22.27;;;16.50;99.90;;;;;;4952584;28;21558;-87
2022/09/08 01:23:43;;;;;;;25.77;19.80;;;16.60;99.90;;;;;;4951195;28;20557;-87
2022/09/08 01:26:28;;;;;;;29.95;23.33;;;16.50;99.90;;;;;;4874705;29;20533;-87
2022/09/08 01:29:02;;;;;;;29.40;24.17;;;16.50;99.90;;;;;;4878603;29;20102;-87
2022/09/08 01:31:30;;;;;;;;;;;16.50;99.90;;;;;;4897277;29;20483;-87
2022/09/08 01:34:01;;;;;;;32.22;23.98;;;16.50;99.90;;;;;;4879597;29;19934;-87
2022/09/08 01:36:27;;;;;;;26.90;22.23;;;16.50;99.90;;;;;;4894289;29;20056;-87
2022/09/08 01:38:56;;;;;;;32.88;24.63;;;16.50;99.90;;;;;;4865244;29;20798;-87
2022/09/08 01:41:22;;;;;;;29.38;24.35;;;16.40;99.90;;;;;;4881382;29;20081;-87
2022/09/08 01:43:48;;;;;;;28.27;24.50;;;16.50;99.90;;;;;;4880939;29;20120;-87
2022/09/08 01:46:16;;;;;;;30.67;23.52;;;16.50;99.90;;;;;;4878838;29;20053;-87
2022/09/08 01:48:41;;;;;;;31.55;26.95;;;16.50;99.90;;;;;;4897353;29;20045;-87
2022/09/08 01:51:08;;;;;;;34.35;28.00;;;16.50;99.90;;;;;;4878892;29;20049;-87
2022/09/08 01:53:35;;;;;;;34.38;27.25;;;16.70;99.90;;;;;;4864048;29;20547;-87
2022/09/08 01:56:01;;;;;;;32.33;27.58;;;16.50;99.90;;;;;;4876682;29;20128;-87
2022/09/08 01:58:27;;;;;;;36.08;30.13;;;16.50;99.90;;;;;;4876522;29;20181;-87
2022/09/08 02:00:53;;;;;;;33.90;28.33;;;16.60;99.90;;;;;;4914258;28;20125;-87
2022/09/08 02:03:22;;;;;;;36.00;28.70;;;16.50;99.90;;;;;;4940090;28;20046;-87
2022/09/08 02:05:48;;;;;;;36.92;29.85;;;16.70;99.90;;;;;;4940050;28;20042;-87
2022/09/08 02:08:13;;;;;;;37.90;31.67;;;16.60;99.90;;;;;;4971589;28;20043;-87
2022/09/08 02:10:39;;;;;;;41.72;31.77;;;16.60;99.90;;;;;;4951819;28;20093;-86
2022/09/08 02:13:11;;;;;;;39.80;30.33;;;16.60;99.90;;;;;;4954579;28;20047;-87
2022/09/08 02:15:37;;;;;;;41.10;32.95;;;16.60;99.90;;;;;;4970721;28;20039;-87
2022/09/08 02:18:07;;;;;;;42.08;33.22;;;16.70;99.90;;;;;;4968384;28;20109;-87
2022/09/08 02:20:33;;;;;;;39.28;31.90;;;16.80;99.90;;;;;;4951332;28;20042;-87
2022/09/08 02:22:59;;;;;;;40.20;32.25;;;16.70;99.90;;;;;;4971825;28;20058;-87
2022/09/08 02:25:25;;;;;;;41.35;33.67;;;16.70;99.90;;;;;;4953532;28;20043;-87
2022/09/08 02:27:52;;;;;;;47.00;34.42;;;16.80;99.90;;;;;;4971421;28;20041;-87
2022/09/08 02:30:22;;;;;;;46.10;35.22;;;16.80;99.90;;;;;;4937508;28;20043;-87
2022/09/08 02:32:49;;;;;;;46.55;36.65;;;16.80;99.90;;;;;;4965742;28;20057;-87
2022/09/08 02:35:15;;;;;;;43.45;35.45;;;16.80;99.90;;;;;;4934648;28;20474;-87
2022/09/08 02:37:41;;;;;;;47.22;37.05;;;16.80;99.90;;;;;;4950004;28;20071;-87
2022/09/08 02:40:14;;;;;;;40.30;34.67;;;16.80;99.90;;;;;;4970364;28;20060;-87
2022/09/08 02:42:45;;;;;;;49.05;36.55;;;16.80;99.90;;;;;;4969381;28;20051;-87
2022/09/08 02:45:11;;;;;;;45.60;37.08;;;16.90;99.90;;;;;;4953266;28;20043;-87
2022/09/08 02:47:37;;;;;;;47.35;36.78;;;16.90;99.90;;;;;;4948162;28;20069;-87
2022/09/08 02:50:03;;;;;;;45.35;36.53;;;16.90;99.90;;;;;;4969163;28;20031;-87
2022/09/08 02:52:35;;;;;;;48.00;37.20;;;16.90;99.90;;;;;;4952592;28;20050;-87
2022/09/08 02:55:00;;;;;;;47.55;37.83;;;16.90;99.90;;;;;;4971377;28;20045;-87
2022/09/08 02:57:26;;;;;;;44.72;35.70;;;17.00;99.90;;;;;;4937504;28;20125;-87
2022/09/08 02:59:52;;;;;;;46.75;36.83;;;16.90;99.90;;;;;;4951128;28;20106;-87
2022/09/08 03:02:18;;;;;;;44.55;35.10;;;16.90;99.90;;;;;;4964171;28;20482;-87
2022/09/08 03:04:46;;;;;;;44.75;35.75;;;16.90;99.90;;;;;;4952165;28;20046;-87
2022/09/08 03:07:12;;;;;;;47.10;37.78;;;16.90;99.90;;;;;;4952260;28;20080;-87
2022/09/08 03:09:51;;;;;;;47.80;37.72;;;17.00;99.90;;;;;;4936845;28;20067;-86
2022/09/08 03:12:17;;;;;;;44.95;36.95;;;16.90;99.90;;;;;;4967318;28;20043;-87
2022/09/08 03:14:43;;;;;;;47.50;38.10;;;16.90;99.90;;;;;;4970733;28;20438;-87
2022/09/08 03:17:28;;;;;;;47.67;38.33;;;17.10;99.90;;;;;;4952260;28;20514;-87
2022/09/08 03:19:54;;;;;;;46.22;36.53;;;16.90;99.90;;;;;;4965128;28;20054;-87
2022/09/08 03:22:20;;;;;;;47.03;37.95;;;16.90;99.90;;;;;;4969231;28;20390;-87
2022/09/08 03:24:49;;;;;;;46.75;37.67;;;16.90;99.90;;;;;;4952457;28;20098;-87
2022/09/08 03:27:14;;;;;;;49.65;39.75;;;16.90;99.90;;;;;;4951969;28;20051;-86
2022/09/08 03:29:40;;;;;;;50.30;40.05;;;16.80;99.90;;;;;;4937604;28;20049;-87
2022/09/08 03:32:06;;;;;;;48.47;37.40;;;16.80;99.90;;;;;;4952666;28;20439;-87
2022/09/08 03:34:37;;;;;;;47.00;37.47;;;16.80;99.90;;;;;;4950516;28;20144;-87
2022/09/08 03:37:02;;;;;;;50.25;39.85;;;16.70;99.90;;;;;;4953474;28;20034;-87
2022/09/08 03:39:28;;;;;;;57.05;42.17;;;16.80;99.90;;;;;;4951622;28;20549;-87
2022/09/08 03:41:54;;;;;;;55.30;41.78;;;16.80;99.90;;;;;;4952559;28;20050;-87
2022/09/08 03:44:20;;;;;;;52.30;40.47;;;16.80;99.90;;;;;;4951828;28;20034;-86
2022/09/08 03:46:46;;;;;;;48.22;38.75;;;16.80;99.90;;;;;;4970344;28;20078;-87
2022/09/08 03:49:12;;;;;;;49.47;38.58;;;16.80;99.90;;;;;;4969085;28;20067;-86
2022/09/08 03:51:38;;;;;;;54.33;40.80;;;16.80;99.90;;;;;;4950762;28;20046;-87
2022/09/08 03:56:51;;;;;;;50.53;40.38;;;16.80;99.90;;;;;;4969257;28;20116;-87
2022/09/08 03:59:18;;;;;;;53.80;41.88;;;16.80;99.90;;;;;;4951134;28;20178;-87
2022/09/08 04:01:44;;;;;;;51.22;39.88;;;16.80;99.90;;;;;;4967817;28;20134;-87
2022/09/08 04:04:09;;;;;;;53.25;42.80;;;16.80;99.90;;;;;;4951575;28;20061;-87
2022/09/08 04:06:47;;;;;;;53.13;42.08;;;17.10;99.90;;;;;;4951739;28;20038;-87
2022/09/08 04:09:19;;;;;;;59.28;42.78;;;16.80;99.90;;;;;;4946661;28;20047;-87
2022/09/08 04:11:44;;;;;;;53.17;41.15;;;16.80;99.90;;;;;;4935175;28;20046;-87
2022/09/08 04:14:10;;;;;;;56.20;42.65;;;16.80;99.90;;;;;;4969742;28;20501;-87
2022/09/08 04:16:41;;;;;;;56.17;44.72;;;16.80;99.90;;;;;;4933522;28;20038;-87
2022/09/08 04:19:07;;;;;;;53.15;43.30;;;16.80;99.90;;;;;;4945148;28;20105;-87
2022/09/08 04:21:34;;;;;;;54.70;41.60;;;16.80;99.90;;;;;;4933902;28;20050;-87
2022/09/08 04:24:00;;;;;;;57.38;43.65;;;16.90;99.90;;;;;;4949329;28;20053;-87
2022/09/08 04:26:26;;;;;;;56.58;44.83;;;16.90;99.90;;;;;;4950032;28;20034;-87
2022/09/08 04:28:56;;;;;;;58.97;42.88;;;16.90;99.90;;;;;;4949927;28;20043;-87
2022/09/08 04:31:24;;;;;;;57.50;45.63;;;16.90;99.90;;;;;;4969815;28;20082;-87
2022/09/08 04:33:53;;;;;;;57.00;45.25;;;16.90;99.90;;;;;;4967332;28;20562;-86
2022/09/08 04:36:24;;;;;;;56.15;43.67;;;16.90;99.90;;;;;;4949079;28;20035;-87
2022/09/08 04:38:50;;;;;;;54.10;41.97;;;16.90;99.90;;;;;;4968463;28;20023;-87
2022/09/08 04:41:17;;;;;;;59.42;45.20;;;16.90;99.90;;;;;;4951628;28;20181;-87
2022/09/08 04:43:43;;;;;;;60.70;44.95;;;16.90;99.90;;;;;;4951583;28;20049;-87
2022/09/08 04:46:13;;;;;;;54.72;44.47;;;16.90;99.90;;;;;;4967654;28;20039;-87
2022/09/08 04:48:43;;;;;;;57.28;44.38;;;17.00;99.90;;;;;;4934211;28;20129;-87
2022/09/08 04:51:11;;;;;;;59.03;44.50;;;16.90;99.90;;;;;;4963121;28;20039;-87
2022/09/08 04:53:37;;;;;;;54.63;41.72;;;17.00;99.90;;;;;;4965548;28;20042;-87
2022/09/08 04:56:05;;;;;;;52.78;40.65;;;16.90;99.90;;;;;;4968411;28;20076;-87
2022/09/08 04:58:32;;;;;;;56.55;44.42;;;16.90;99.90;;;;;;4968388;28;20077;-87
2022/09/08 05:01:07;;;;;;;59.47;43.50;;;16.90;99.90;;;;;;4931511;28;20183;-87
2022/09/08 05:03:34;;;;;;;53.80;41.75;;;16.90;99.90;;;;;;4965452;28;20039;-87
2022/09/08 05:06:15;;;;;;;54.10;41.90;;;16.90;99.90;;;;;;4968216;28;20495;-87
2022/09/08 05:08:43;;;;;;;54.28;42.78;;;16.90;99.90;;;;;;4966688;28;20495;-87
2022/09/08 05:11:16;;;;;;;54.65;42.60;;;17.40;99.90;;;;;;4969414;28;20613;-86
2022/09/08 05:13:42;;;;;;;57.53;41.88;;;16.90;99.90;;;;;;4969694;28;20073;-87
2022/09/08 05:16:19;;;;;;;61.13;44.38;;;16.90;99.90;;;;;;4948723;28;20073;-87
2022/09/08 05:18:52;;;;;;;53.03;41.88;;;17.30;99.90;;;;;;4952433;28;20078;-87
2022/09/08 05:21:19;;;;;;;56.30;44.57;;;16.80;99.90;;;;;;4950793;28;20035;-86
2022/09/08 05:23:47;;;;;;;56.55;43.00;;;16.80;99.90;;;;;;4947344;28;20043;-87
2022/09/08 05:26:15;;;;;;;55.92;44.28;;;16.80;99.90;;;;;;4951869;28;20562;-86
2022/09/08 05:28:42;;;;;;;57.95;45.05;;;16.70;99.90;;;;;;4969972;28;20043;-89
2022/09/08 05:31:12;;;;;;;57.20;44.20;;;16.90;99.90;;;;;;4935528;28;20043;-87
2022/09/08 05:33:38;;;;;;;56.83;44.92;;;17.00;99.90;;;;;;4963851;28;20042;-87
2022/09/08 05:36:16;;;;;;;49.60;39.88;;;16.70;99.90;;;;;;4952102;28;20410;-87
2022/09/08 05:38:42;;;;;;;53.10;40.78;;;16.70;99.90;;;;;;4953282;28;20042;-88
2022/09/08 05:41:09;;;;;;;54.53;42.53;;;16.80;99.90;;;;;;4953366;28;20507;-89
2022/09/08 05:44:08;;;;;;;57.72;43.10;;;16.80;99.90;;;;;;4956174;28;20132;-89
2022/09/08 05:46:33;;;;;;;54.13;43.00;;;17.10;99.90;;;;;;4938534;28;20057;-88
2022/09/08 05:49:03;;;;;;;54.80;42.53;;;16.80;99.90;;;;;;4972091;28;20410;-89
2022/09/08 05:52:16;;;;;;;50.55;40.80;;;16.90;99.90;;;;;;4954766;28;20578;-89
2022/09/08 05:55:14;;;;;;;53.38;42.38;;;16.90;99.90;;;;;;4955337;28;20380;-85
2022/09/08 05:57:48;;;;;;;52.10;40.42;;;16.70;99.90;;;;;;4952682;28;20399;-92
2022/09/08 06:00:37;;;;;;;50.35;38.80;;;17.00;99.90;;;;;;4945409;28;20053;-92
2022/09/08 06:03:09;;;;;;;54.53;41.88;;;17.00;99.90;;;;;;4955094;28;20039;-92
2022/09/08 06:05:41;;;;;;;50.13;40.83;;;17.10;99.90;;;;;;4953198;28;20522;-92
2022/09/08 06:08:46;;;;;;;53.08;41.53;;;17.10;99.90;;;;;;4932884;28;20051;-92
2022/09/08 06:11:39;;;;;;;52.35;41.28;;;17.20;99.90;;;;;;4861228;29;20056;-92
2022/09/08 06:14:18;;;;;;;54.10;40.08;;;16.90;99.90;;;;;;4875570;29;20064;-89
2022/09/08 06:16:48;;;;;;;51.55;40.40;;;17.20;99.90;;;;;;4843718;29;20053;-89
2022/09/08 06:19:17;;;;;;;50.08;40.08;;;17.00;99.90;;;;;;4858166;29;20092;-90
2022/09/08 06:21:45;;;;;;;58.15;42.08;;;17.20;99.90;;;;;;4874777;29;20068;-89
2022/09/08 06:24:20;;;;;;;50.58;40.22;;;17.60;99.90;;;;;;4872463;29;20052;-90
2022/09/08 06:26:50;;;;;;;52.10;39.50;;;17.80;99.90;;;;;;4856214;29;20086;-91
2022/09/08 06:29:27;;;;;;;49.22;39.15;;;17.20;99.90;;;;;;4873302;29;20516;-92
2022/09/08 06:32:54;;;;;;;52.10;40.25;;;17.10;99.90;;;;;;4874721;29;20053;-91
2022/09/08 06:35:31;;;;;;;58.35;45.17;;;17.10;99.90;;;;;;4856504;29;20056;-91
2022/09/08 06:38:43;;;;;;;49.45;40.85;;;17.20;99.90;;;;;;4872208;29;20055;-90
2022/09/08 06:41:36;;;;;;;51.70;42.53;;;17.10;99.90;;;;;;4909888;28;20063;-90
2022/09/08 06:44:29;;;;;;;52.58;42.20;;;17.10;99.90;;;;;;4952333;28;20050;-89
2022/09/08 06:47:16;;;;;;;52.83;42.92;;;17.10;99.90;;;;;;4971153;28;20042;-89
2022/09/08 06:49:55;;;;;;;54.50;42.63;;;16.80;99.90;;;;;;4952001;28;20494;-89
2022/09/08 06:53:12;;;;;;;51.97;44.10;;;17.20;99.90;;;;;;4968486;28;20526;-90
2022/09/08 06:56:07;;;;;;;54.97;44.00;;;17.20;99.90;;;;;;4958498;28;20042;-89
2022/09/08 06:58:46;;;;;;;;;;;;;;;;;;;;;
2022/09/08 07:01:48;;;;;;;56.75;46.05;;;16.80;99.90;;;;;;4952227;28;20061;-90
2022/09/08 07:04:24;;;;;;;57.20;45.67;;;17.20;99.90;;;;;;4949500;28;20214;-89
2022/09/08 07:07:32;;;;;;;56.60;45.30;;;17.20;99.90;;;;;;4970907;28;20049;-89
2022/09/08 07:10:47;;;;;;;59.00;45.30;;;17.50;99.90;;;;;;4948500;28;20055;-89
2022/09/08 07:14:08;;;;;;;52.47;42.40;;;17.00;99.90;;;;;;4941618;28;20503;-89
2022/09/08 07:17:12;;;;;;;59.75;47.58;;;17.20;99.90;;;;;;4950759;28;20145;-88
2022/09/08 07:19:40;;;;;;;59.15;47.78;;;17.20;99.90;;;;;;4968662;28;20050;-89
2022/09/08 07:22:17;;;;;;;57.90;45.45;;;17.20;99.90;;;;;;4971393;28;20122;-89
2022/09/08 07:24:45;;;;;;;54.85;44.83;;;17.20;99.90;;;;;;4970348;28;20081;-89
2022/09/08 07:27:13;;;;;;;54.92;45.35;;;17.20;99.90;;;;;;4953826;28;20070;-91
2022/09/08 07:29:44;;;;;;;60.05;47.78;;;17.10;99.90;;;;;;4970614;28;20034;-90
2022/09/08 07:32:25;;;;;;;62.28;48.28;;;17.10;99.90;;;;;;4963577;28;20046;-90
2022/09/08 07:34:59;;;;;;;58.00;45.47;;;17.00;99.90;;;;;;4966870;28;20042;-90
2022/09/08 07:37:41;;;;;;;54.38;40.08;;;17.10;99.90;;;;;;4952847;28;20071;-90
2022/09/08 07:40:21;;;;;;;60.30;43.88;;;17.00;99.90;;;;;;4952819;28;20431;-91
2022/09/08 07:42:57;;;;;;;56.97;43.20;;;17.00;99.90;;;;;;4970417;28;20050;-90
2022/09/08 07:45:39;;;;;;;55.83;42.95;;;17.00;99.90;;;;;;4969896;28;20054;-89
2022/09/08 07:48:35;;;;;;;54.80;42.78;;;16.90;99.90;;;;;;4965653;28;20057;-93
2022/09/08 07:51:14;;;;;;;55.63;42.03;;;16.90;99.90;;;;;;4962530;28;20047;-93
2022/09/08 07:54:16;;;;;;;52.90;40.78;;;16.90;99.90;;;;;;4947816;29;20051;-93
2022/09/08 07:56:45;;;;;;;47.95;37.42;;;16.80;99.90;;;;;;4953422;28;20046;-93
2022/09/08 07:59:24;;;;;;;50.15;37.65;;;17.00;99.90;;;;;;4968011;28;20050;-94
2022/09/08 08:02:11;;;;;;;45.00;36.33;;;16.90;99.90;;;;;;4970205;28;20047;-94
2022/09/08 08:05:01;;;;;;;51.00;38.15;;;16.90;99.90;;;;;;4963090;28;20101;-93
2022/09/08 08:07:50;;;;;;;48.70;37.70;;;16.90;99.90;;;;;;4932961;28;20046;-94
2022/09/08 08:10:29;;;;;;;48.65;38.00;;;16.90;99.90;;;;;;4968686;28;20494;-92
2022/09/08 08:13:19;;;;;;;45.08;34.00;;;16.90;99.90;;;;;;4967220;28;20046;-94
2022/09/08 08:15:48;;;;;;;44.80;33.85;;;16.90;99.90;;;;;;4969537;28;20409;-95
2022/09/08 08:18:41;;;;;;;45.30;36.55;;;16.90;99.90;;;;;;4953806;28;20047;-93
2022/09/08 08:21:23;;;;;;;38.65;32.55;;;16.90;99.90;;;;;;4952705;28;20039;-93
2022/09/08 08:24:16;;;;;;;43.40;33.17;;;16.90;99.90;;;;;;4952583;28;20065;-94
2022/09/08 08:27:06;;;;;;;40.83;33.05;;;17.00;99.90;;;;;;4968294;28;20043;-93
2022/09/08 08:29:50;;;;;;;44.67;34.97;;;17.10;99.90;;;;;;4968664;28;20038;-93
2022/09/08 08:32:36;;;;;;;48.03;35.70;;;17.10;99.90;;;;;;4949115;28;20054;-94
2022/09/08 08:35:19;;;;;;;50.00;36.53;;;17.10;99.90;;;;;;4944455;28;20494;-94
2022/09/08 08:37:49;;;;;;;44.95;36.30;;;17.10;99.90;;;;;;4964103;28;20043;-90
2022/09/08 08:40:52;;;;;;;44.97;36.00;;;17.20;99.90;;;;;;4952295;28;20117;-91
2022/09/08 08:43:48;;;;;;;44.53;36.40;;;17.20;99.90;;;;;;4952149;28;20047;-92
2022/09/08 08:46:32;;;;;;;46.58;37.35;;;17.30;99.90;;;;;;4944472;28;20113;-93
2022/09/08 08:49:04;;;;;;;43.80;35.17;;;17.30;99.90;;;;;;4968601;28;20093;-92
2022/09/08 08:51:42;;;;;;;46.78;37.20;;;17.30;99.90;;;;;;4952546;28;20486;-93
2022/09/08 08:54:43;;;;;;;42.70;35.95;;;17.40;99.90;;;;;;4947237;28;20493;-93
2022/09/08 08:57:24;;;;;;;47.67;37.85;;;17.40;99.90;;;;;;4968780;28;20043;-94
2022/09/08 09:00:08;;;;;;;45.00;36.75;;;17.40;99.90;;;;;;4969819;28;20043;-92
2022/09/08 09:02:57;;;;;;;38.63;31.60;;;17.40;99.90;;;;;;4969926;28;20402;-93
2022/09/08 09:05:50;;;;;;;40.45;32.92;;;17.40;99.90;;;;;;4952238;28;20046;-93
2022/09/08 09:08:40;;;;;;;43.25;33.92;;;17.50;99.90;;;;;;4951751;28;20038;-92
2022/09/08 09:11:30;;;;;;;37.63;31.50;;;17.50;99.90;;;;;;4952434;28;20098;-93
2022/09/08 09:14:14;;;;;;;32.63;27.85;;;17.50;99.90;;;;;;4959438;28;20133;-93
2022/09/08 09:16:55;;;;;;;34.13;27.00;;;17.50;99.90;;;;;;4971114;28;20042;-92
2022/09/08 09:19:52;;;;;;;31.48;25.75;;;17.60;99.90;;;;;;4974662;28;20333;-93
2022/09/08 09:22:38;;;;;;;28.75;25.67;;;17.60;99.90;;;;;;4971235;28;20081;-94
2022/09/08 09:25:21;;;;;;;25.90;21.42;;;17.60;99.90;;;;;;4943091;28;20055;-92
2022/09/08 09:28:10;;;;;;;24.65;21.85;;;17.60;99.90;;;;;;4973155;28;20053;-90
2022/09/08 09:30:36;;;;;;;23.40;20.08;;;17.60;99.90;;;;;;4953747;28;20046;-93
2022/09/08 09:33:39;;;;;;;26.45;21.75;;;17.60;99.90;;;;;;4974254;28;20447;-91
2022/09/08 09:36:25;;;;;;;21.48;17.27;;;17.70;99.90;;;;;;4956596;28;20450;-91
2022/09/08 09:39:18;;;;;;;21.45;15.65;;;17.70;99.90;;;;;;4951836;28;20047;-91
2022/09/08 09:42:06;;;;;;;16.35;13.63;;;17.80;99.90;;;;;;4937555;28;20142;-89
2022/09/08 09:44:48;;;;;;;16.33;13.15;;;17.80;99.90;;;;;;4970503;28;20068;-88
2022/09/08 09:47:51;;;;;;;15.52;12.82;;;17.80;99.90;;;;;;4958613;28;20098;-90
2022/09/08 09:50:45;;;;;;;16.67;12.80;;;17.80;99.90;;;;;;4955941;28;20407;-90
2022/09/08 09:53:32;;;;;;;14.50;10.98;;;17.90;99.90;;;;;;4948389;28;20522;-90
2022/09/08 09:56:37;;;;;;;15.38;11.68;;;17.90;99.90;;;;;;4957613;28;20129;-89
2022/09/08 09:59:25;;;;;;;17.00;12.03;;;18.00;99.90;;;;;;4972457;28;20118;-90
2022/09/08 10:02:26;;;;;;;14.23;10.43;;;18.00;99.90;;;;;;4974875;28;20302;-89
2022/09/08 10:05:32;;;;;;;12.90;8.75;;;18.00;99.90;;;;;;4917166;29;20093;-90
2022/09/08 10:08:34;;;;;;;11.30;8.07;;;18.00;99.90;;;;;;4923274;29;20047;-91
2022/09/08 10:11:21;;;;;;;12.48;8.95;;;18.00;99.90;;;;;;4914143;29;20051;-89
2022/09/08 10:14:26;;;;;;;11.55;7.80;;;18.00;99.90;;;;;;4916188;29;20059;-91
2022/09/08 10:17:15;;;;;;;12.13;7.35;;;18.00;99.90;;;;;;4914507;29;20055;-91
2022/09/08 10:20:14;;;;;;;10.55;7.25;;;17.90;99.90;;;;;;4907175;29;20040;-89
2022/09/08 10:23:21;;;;;;;9.38;7.43;;;18.00;99.90;;;;;;4913247;29;20093;-91
2022/09/08 10:26:05;;;;;;;11.27;8.02;;;17.90;99.90;;;;;;4915013;29;20043;-90
2022/09/08 10:28:54;;;;;;;9.52;6.93;;;18.00;99.90;;;;;;4913808;29;20056;-90
2022/09/08 10:31:41;;;;;;;10.52;6.88;;;18.00;99.90;;;;;;4898742;29;20135;-90
2022/09/08 10:34:15;;;;;;;8.93;6.55;;;18.00;99.90;;;;;;4916479;29;20428;-91
2022/09/08 10:36:46;;;;;;;;;;;17.90;99.90;;;;;;4915022;29;20049;-92
2022/09/08 10:39:21;;;;;;;8.32;5.30;;;18.00;99.90;;;;;;4912711;29;19927;-91
2022/09/08 10:42:31;;;;;;;8.82;5.25;;;18.30;99.90;;;;;;4917638;28;20137;-90
2022/09/08 10:45:30;;;;;;;8.82;5.65;;;18.00;99.90;;;;;;4968924;28;20065;-90
2022/09/08 10:48:39;;;;;;;8.10;5.10;;;18.10;99.90;;;;;;4955123;28;20387;-91
2022/09/08 10:51:22;;;;;;;10.98;5.18;;;18.10;99.90;;;;;;4969209;28;20098;-90
2022/09/08 10:54:06;;;;;;;7.85;4.40;;;18.00;99.90;;;;;;4932037;28;20118;-90
2022/09/08 10:56:38;;;;;;;7.28;3.35;;;18.30;99.90;;;;;;4971149;28;20047;-90
2022/09/08 10:59:31;;;;;;;5.72;3.13;;;18.00;99.90;;;;;;4970148;28;20058;-89
2022/09/08 11:02:22;;;;;;;4.68;3.00;;;17.90;99.90;;;;;;4952603;28;20967;-90
2022/09/08 11:05:12;;;;;;;4.80;2.33;;;17.90;99.90;;;;;;4939536;28;20414;-89
2022/09/08 11:08:06;;;;;;;3.95;2.15;;;17.90;99.90;;;;;;4948997;28;20054;-89
2022/09/08 11:11:09;;;;;;;4.68;2.10;;;17.90;99.90;;;;;;4948553;28;20179;-89
2022/09/08 11:13:53;;;;;;;4.72;1.70;;;17.80;99.90;;;;;;4964368;28;20483;-90
2022/09/08 11:16:38;;;;;;;4.18;1.83;;;17.80;99.90;;;;;;4952937;28;20869;-89
2022/09/08 11:19:46;;;;;;;4.22;2.08;;;17.70;99.90;;;;;;4969256;28;20051;-89
2022/09/08 11:22:52;;;;;;;5.70;2.03;;;17.70;99.90;;;;;;4911451;29;20127;-89
2022/09/08 11:25:41;;;;;;;4.25;2.00;;;18.10;99.90;;;;;;4908376;29;20044;-88
2022/09/08 11:28:12;;;;;;;6.53;1.90;;;17.70;99.90;;;;;;4932770;28;20058;-89
2022/09/08 11:31:03;;;;;;;5.15;2.17;;;17.70;99.90;;;;;;4954065;28;20051;-88
2022/09/08 11:33:52;;;;;;;5.68;2.10;;;17.70;99.90;;;;;;4955507;28;20491;-88
2022/09/08 11:36:56;;;;;;;3.83;1.83;;;17.70;99.90;;;;;;4938239;28;20038;-88
2022/09/08 11:39:40;;;;;;;5.57;1.75;;;17.70;99.90;;;;;;4948911;28;20102;-90
2022/09/08 11:42:53;;;;;;;4.10;1.70;;;18.30;99.90;;;;;;4952073;28;20050;-89
2022/09/08 11:45:30;;;;;;;5.22;1.90;;;17.70;99.90;;;;;;4940004;28;20574;-89
2022/09/08 11:48:16;;;;;;;3.95;1.50;;;17.70;99.90;;;;;;4951477;28;20057;-90
2022/09/08 11:51:15;;;;;;;5.93;1.70;;;17.70;99.90;;;;;;4964737;28;20073;-90
2022/09/08 11:54:20;;;;;;;4.60;1.60;;;17.70;99.90;;;;;;4951248;28;20069;-93
2022/09/08 11:57:33;;;;;;;4.38;1.85;;;17.70;99.90;;;;;;4970516;28;20039;-92
2022/09/08 12:00:32;;;;;;;5.07;1.70;;;17.70;99.90;;;;;;4916854;29;20058;-90
2022/09/08 12:03:16;;;;;;;5.35;1.90;;;17.70;99.90;;;;;;4899964;29;20056;-90
2022/09/08 12:06:19;;;;;;;5.03;2.08;;;17.70;99.90;;;;;;4903991;29;20619;-90
2022/09/08 12:08:51;;;;;;;6.28;2.17;;;17.60;99.90;;;;;;4895219;29;20044;-91
2022/09/08 12:11:16;;;;;;;9.10;2.65;;;17.70;99.90;;;;;;4914491;29;20143;-90
2022/09/08 12:14:17;;;;;;;5.63;2.40;;;17.70;99.90;;;;;;4905064;29;20598;-90
2022/09/08 12:16:52;;;;;;;4.68;2.05;;;17.70;99.90;;;;;;4817799;29;20061;-90
2022/09/08 12:19:31;;;;;;;4.45;2.13;;;17.70;99.90;;;;;;4852714;29;20103;-91
2022/09/08 12:22:21;;;;;;;3.38;1.90;;;17.70;99.90;;;;;;4854891;29;20061;-93
2022/09/08 12:24:47;;;;;;;5.65;2.20;;;17.70;99.90;;;;;;4827263;29;20062;-93
2022/09/08 12:27:27;;;;;;;5.28;2.70;;;18.00;99.90;;;;;;4849057;29;20049;-90
2022/09/08 12:30:32;;;;;;;4.15;2.40;;;17.80;99.90;;;;;;4855385;29;20121;-88
2022/09/08 12:33:05;;;;;;;5.68;2.70;;;17.90;99.90;;;;;;4854915;29;20102;-89
2022/09/08 12:35:58;;;;;;;5.85;2.60;;;18.00;99.90;;;;;;4858119;29;20490;-88
2022/09/08 12:39:05;;;;;;;4.47;1.55;;;18.00;99.90;;;;;;4855877;29;20056;-88
2022/09/08 12:42:02;;;;;;;5.43;2.22;;;18.00;99.90;;;;;;4833855;29;20058;-89
2022/09/08 12:44:45;;;;;;;6.68;2.10;;;18.00;99.90;;;;;;4815960;29;20476;-89
2022/09/08 12:47:43;;;;;;;3.65;2.22;;;18.00;99.90;;;;;;4837149;29;20058;-89
2022/09/08 12:50:43;;;;;;;5.22;2.53;;;18.10;99.90;;;;;;4817872;29;20139;-89
2022/09/08 12:53:31;;;;;;;5.15;2.20;;;18.10;99.90;;;;;;4856277;29;20615;-88
2022/09/08 12:56:19;;;;;;;3.70;1.95;;;18.10;99.90;;;;;;4891699;29;20045;-89
2022/09/08 12:59:21;;;;;;;3.80;2.25;;;18.10;99.90;;;;;;4903173;29;20117;-90
2022/09/08 13:02:22;;;;;;;4.90;2.60;;;18.10;99.90;;;;;;4891745;29;20060;-87
2022/09/08 13:05:02;;;;;;;8.85;2.30;;;18.00;99.90;;;;;;4893452;29;20056;-86
2022/09/08 13:07:37;;;;;;;4.63;2.70;;;18.10;99.90;;;;;;4893431;29;20048;-87
2022/09/08 13:10:28;;;;;;;5.82;2.50;;;18.00;99.90;;;;;;4893127;29;20048;-87
2022/09/08 13:13:19;;;;;;;5.00;2.58;;;18.10;99.90;;;;;;4894641;29;20596;-88
2022/09/08 13:16:08;;;;;;;5.07;2.45;;;18.00;99.90;;;;;;4891493;29;20039;-86
2022/09/08 13:18:49;;;;;;;4.35;2.67;;;17.80;99.90;;;;;;4923565;28;20073;-88
2022/09/08 13:21:41;;;;;;;4.20;2.60;;;18.00;99.90;;;;;;4934661;28;20047;-85
2022/09/08 13:24:53;;;;;;;6.90;2.83;;;18.00;99.90;;;;;;4945100;28;20042;-86
2022/09/08 13:28:03;;;;;;;6.65;3.10;;;18.00;99.90;;;;;;4871772;29;20088;-87
2022/09/08 13:31:03;;;;;;;6.30;3.42;;;18.10;99.90;;;;;;4869856;29;20048;-87
2022/09/08 13:33:42;;;;;;;8.02;4.63;;;18.20;99.90;;;;;;4874536;29;20117;-89
2022/09/08 13:36:30;;;;;;;7.95;4.80;;;18.20;99.90;;;;;;4853542;29;20066;-89
2022/09/08 13:39:35;;;;;;;7.60;4.22;;;18.20;99.90;;;;;;4888965;29;20053;-88
2022/09/08 13:42:22;;;;;;;7.30;4.72;;;18.40;99.90;;;;;;4887193;29;20088;-88
2022/09/08 13:45:25;;;;;;;7.72;4.95;;;18.40;99.90;;;;;;4889984;29;20110;-90
2022/09/08 13:48:06;;;;;;;8.88;5.55;;;18.40;99.90;;;;;;4871700;29;20063;-89